createdAt,value
2019-06-08T00:00:09.104Z,6.83
2019-06-08T00:02:40.131Z,6.93
2019-06-08T00:05:12.471Z,9.30
2019-06-08T00:07:43.409Z,7.30
2019-06-08T00:10:14.703Z,9.93
2019-06-08T00:12:45.983Z,12.07
2019-06-08T00:15:18.549Z,7.43
2019-06-08T00:17:49.832Z,12.63
2019-06-08T00:20:21.874Z,10.73
2019-06-08T00:22:53.194Z,7.20
2019-06-08T00:25:24.297Z,7.70
2019-06-08T00:27:55.069Z,9.40
2019-06-08T00:30:25.888Z,10.73
2019-06-08T00:32:56.794Z,8.20
2019-06-08T00:35:27.828Z,9.60
2019-06-08T00:37:58.722Z,9.13
2019-06-08T00:40:29.715Z,9.13
2019-06-08T00:43:00.500Z,13.47
2019-06-08T00:45:31.545Z,10.00
2019-06-08T00:48:02.478Z,10.83
2019-06-08T00:50:33.373Z,11.27
2019-06-08T00:53:04.378Z,8.70
2019-06-08T00:55:35.414Z,8.13
2019-06-08T00:58:06.365Z,8.47
2019-06-08T01:00:37.390Z,7.93
2019-06-08T01:03:08.518Z,10.97
2019-06-08T01:05:39.413Z,11.43
2019-06-08T01:08:10.464Z,9.03
2019-06-08T01:10:41.600Z,9.90
2019-06-08T01:13:12.398Z,8.93
2019-06-08T01:15:43.293Z,11.90
2019-06-08T01:18:14.243Z,13.57
2019-06-08T01:20:45.158Z,12.50
2019-06-08T01:23:16.034Z,11.43
2019-06-08T01:25:47.000Z,11.77
2019-06-08T01:28:17.854Z,9.17
2019-06-08T01:30:48.971Z,9.37
2019-06-08T01:33:20.410Z,11.90
2019-06-08T01:35:51.362Z,11.30
2019-06-08T01:38:22.927Z,11.37
2019-06-08T01:40:53.864Z,9.67
2019-06-08T01:43:25.811Z,15.13
2019-06-08T01:45:56.798Z,8.97
2019-06-08T01:48:28.195Z,10.37
2019-06-08T01:50:59.321Z,10.67
2019-06-08T01:53:31.130Z,10.53
2019-06-08T01:56:01.968Z,10.03
2019-06-08T01:58:33.511Z,11.73
2019-06-08T02:01:04.732Z,9.37
2019-06-08T02:03:36.074Z,12.10
2019-06-08T02:06:07.210Z,10.43
2019-06-08T02:08:38.108Z,9.43
2019-06-08T02:11:09.395Z,10.20
2019-06-08T02:13:40.267Z,11.67
2019-06-08T02:16:11.130Z,10.67
2019-06-08T02:18:50.265Z,9.63
2019-06-08T02:21:14.688Z,8.43
2019-06-08T02:23:45.584Z,9.87
2019-06-08T02:26:16.469Z,9.73
2019-06-08T02:28:47.359Z,9.53
2019-06-08T02:31:18.214Z,11.13
2019-06-08T02:33:49.088Z,11.03
2019-06-08T02:36:19.939Z,10.07
2019-06-08T02:38:50.765Z,10.90
2019-06-08T02:41:21.825Z,10.10
2019-06-08T02:43:52.709Z,9.23
2019-06-08T02:46:23.575Z,11.23
2019-06-08T02:49:04.034Z,9.93
2019-06-08T02:51:28.745Z,9.93
2019-06-08T02:54:00.310Z,13.30
2019-06-08T02:56:31.977Z,13.10
2019-06-08T02:59:04.965Z,10.63
2019-06-08T03:01:38.848Z,14.57
2019-06-08T03:04:09.389Z,15.83
2019-06-08T03:06:42.174Z,11.80
2019-06-08T03:09:13.212Z,12.60
2019-06-08T03:11:44.993Z,14.37
2019-06-08T03:14:16.820Z,12.10
2019-06-08T03:16:47.649Z,11.20
2019-06-08T03:19:37.627Z,10.43
2019-06-08T03:22:11.038Z,10.97
2019-06-08T03:24:41.648Z,11.80
2019-06-08T03:27:12.965Z,11.40
2019-06-08T03:29:44.166Z,14.37
2019-06-08T03:32:15.120Z,11.60
2019-06-08T03:34:54.322Z,13.23
2019-06-08T03:37:18.939Z,12.23
2019-06-08T03:39:49.785Z,10.30
2019-06-08T03:42:20.659Z,15.37
2019-06-08T03:44:51.705Z,11.90
2019-06-08T03:47:22.626Z,11.40
2019-06-08T03:49:57.423Z,12.77
2019-06-08T03:52:26.164Z,12.90
2019-06-08T03:54:57.184Z,11.27
2019-06-08T03:57:28.074Z,12.07
2019-06-08T03:59:59.326Z,12.83
2019-06-08T04:02:30.221Z,11.20
2019-06-08T04:05:01.008Z,12.27
2019-06-08T04:07:31.955Z,17.83
2019-06-08T04:10:03.209Z,15.70
2019-06-08T04:12:34.051Z,19.10
2019-06-08T04:15:05.392Z,14.60
2019-06-08T04:17:37.813Z,16.83
2019-06-08T04:20:11.447Z,13.67
2019-06-08T04:22:47.231Z,15.03
2019-06-08T04:25:19.581Z,13.57
2019-06-08T04:27:51.061Z,22.33
2019-06-08T04:30:22.189Z,15.67
2019-06-08T04:32:53.068Z,13.57
2019-06-08T04:35:23.905Z,15.57
2019-06-08T04:37:54.771Z,21.90
2019-06-08T04:40:25.867Z,28.57
2019-06-08T04:42:56.823Z,28.20
2019-06-08T04:45:27.728Z,31.07
2019-06-08T04:47:58.999Z,44.37
2019-06-08T04:50:29.854Z,32.23
2019-06-08T04:53:00.840Z,34.63
2019-06-08T04:55:32.007Z,32.27
2019-06-08T04:58:02.967Z,59.27
2019-06-08T05:00:33.880Z,52.50
2019-06-08T05:03:04.830Z,23.43
2019-06-08T05:05:35.739Z,15.77
2019-06-08T05:08:06.722Z,19.73
2019-06-08T05:10:39.090Z,18.23
2019-06-08T05:13:10.269Z,18.27
2019-06-08T05:15:41.502Z,28.03
2019-06-08T05:18:12.819Z,16.27
2019-06-08T05:20:46.057Z,17.60
2019-06-08T05:23:16.520Z,16.67
2019-06-08T05:25:47.388Z,18.37
2019-06-08T05:28:18.419Z,23.00
2019-06-08T05:30:49.608Z,19.30
2019-06-08T05:33:20.704Z,15.90
2019-06-08T05:35:51.685Z,16.43
2019-06-08T05:38:22.912Z,15.17
2019-06-08T05:40:53.703Z,20.03
2019-06-08T05:43:24.719Z,14.93
2019-06-08T05:45:55.668Z,15.07
2019-06-08T05:48:26.543Z,15.77
2019-06-08T05:51:04.009Z,22.17
2019-06-08T05:53:29.828Z,15.47
2019-06-08T05:56:00.963Z,16.27
2019-06-08T05:58:31.809Z,15.33
2019-06-08T06:01:02.921Z,18.63
2019-06-08T06:03:33.800Z,14.97
2019-06-08T06:06:04.619Z,14.97
2019-06-08T06:08:35.574Z,13.67
2019-06-08T06:11:06.474Z,14.33
2019-06-08T06:13:37.298Z,21.13
2019-06-08T06:16:08.358Z,13.87
2019-06-08T06:18:39.204Z,14.70
2019-06-08T06:21:12.083Z,13.03
2019-06-08T06:23:43.172Z,16.43
2019-06-08T06:26:14.104Z,13.30
2019-06-08T06:28:45.639Z,12.83
2019-06-08T06:31:16.867Z,20.23
2019-06-08T06:33:47.997Z,15.17
2019-06-08T06:36:19.086Z,15.30
2019-06-08T06:38:50.555Z,16.03
2019-06-08T06:41:21.702Z,12.20
2019-06-08T06:43:52.633Z,15.93
2019-06-08T06:46:23.733Z,12.93
2019-06-08T06:48:54.554Z,16.20
2019-06-08T06:51:26.835Z,14.93
2019-06-08T06:53:58.069Z,13.20
2019-06-08T06:56:28.815Z,13.23
2019-06-08T06:58:59.754Z,14.13
2019-06-08T07:01:30.782Z,12.90
2019-06-08T07:04:02.773Z,13.90
2019-06-08T07:06:33.609Z,13.23
2019-06-08T07:09:05.499Z,14.47
2019-06-08T07:11:36.499Z,13.80
2019-06-08T07:14:07.335Z,12.57
2019-06-08T07:16:38.311Z,15.73
2019-06-08T07:19:09.209Z,19.70
2019-06-08T07:21:42.101Z,16.57
2019-06-08T07:24:12.784Z,13.90
2019-06-08T07:26:43.814Z,13.93
2019-06-08T07:29:14.698Z,16.07
2019-06-08T07:31:46.919Z,14.40
2019-06-08T07:34:19.178Z,17.00
2019-06-08T07:36:51.220Z,14.70
2019-06-08T07:39:22.384Z,15.70
2019-06-08T07:41:54.292Z,18.60
2019-06-08T07:44:25.524Z,14.80
2019-06-08T07:46:56.594Z,14.93
2019-06-08T07:49:27.489Z,13.47
2019-06-08T07:52:09.205Z,14.27
2019-06-08T07:54:30.869Z,13.33
2019-06-08T07:57:01.859Z,14.13
2019-06-08T07:59:32.890Z,16.43
2019-06-08T08:02:04.896Z,14.30
2019-06-08T08:04:35.729Z,14.53
2019-06-08T08:07:06.718Z,13.57
2019-06-08T08:09:37.869Z,11.97
2019-06-08T08:12:12.041Z,15.10
2019-06-08T08:14:41.440Z,11.10
2019-06-08T08:17:12.643Z,12.10
2019-06-08T08:19:43.580Z,18.97
2019-06-08T08:22:25.037Z,13.67
2019-06-08T08:24:50.544Z,13.83
2019-06-08T08:27:21.466Z,16.73
2019-06-08T08:29:53.270Z,10.00
2019-06-08T08:32:24.318Z,12.67
2019-06-08T08:34:58.405Z,13.13
2019-06-08T08:37:28.172Z,15.90
2019-06-08T08:40:01.344Z,11.97
2019-06-08T08:42:31.473Z,11.77
2019-06-08T08:45:05.186Z,8.60
2019-06-08T08:47:34.943Z,12.03
2019-06-08T08:50:07.546Z,15.70
2019-06-08T08:52:40.853Z,9.33
2019-06-08T08:55:12.229Z,8.83
2019-06-08T08:57:43.074Z,12.47
2019-06-08T09:00:14.484Z,10.40
2019-06-08T09:02:45.417Z,12.67
2019-06-08T09:05:18.116Z,9.90
2019-06-08T09:07:49.179Z,9.70
2019-06-08T09:10:20.576Z,8.13
2019-06-08T09:12:53.466Z,9.90
2019-06-08T09:15:24.174Z,6.93
2019-06-08T09:17:56.465Z,12.23
2019-06-08T09:23:27.826Z,11.00
2019-06-08T09:26:05.788Z,6.73
2019-06-08T09:28:30.958Z,11.03
2019-06-08T09:31:02.795Z,12.40
2019-06-08T09:33:34.250Z,9.97
2019-06-08T09:36:07.684Z,8.13
2019-06-08T09:38:38.660Z,11.33
2019-06-08T09:41:09.795Z,8.17
2019-06-08T09:43:40.634Z,8.33
2019-06-08T09:46:11.616Z,7.33
2019-06-08T09:48:42.509Z,8.90
2019-06-08T09:51:13.359Z,10.70
2019-06-08T09:53:44.207Z,6.23
2019-06-08T09:56:18.226Z,10.40
2019-06-08T09:58:51.162Z,6.27
2019-06-08T10:01:20.540Z,7.27
2019-06-08T10:03:51.383Z,7.50
2019-06-08T10:06:22.166Z,7.73
2019-06-08T10:08:54.262Z,7.93
2019-06-08T10:11:27.625Z,13.50
2019-06-08T10:14:01.631Z,10.00
2019-06-08T10:16:31.223Z,10.93
2019-06-08T10:19:04.914Z,5.40
2019-06-08T10:21:34.739Z,12.53
2019-06-08T10:24:08.780Z,11.60
2019-06-08T10:26:38.204Z,9.97
2019-06-08T10:29:10.376Z,9.47
2019-06-08T10:31:43.971Z,8.70
2019-06-08T10:34:16.636Z,7.83
2019-06-08T10:36:47.737Z,6.47
2019-06-08T10:39:18.619Z,8.60
2019-06-08T10:41:51.688Z,7.27
2019-06-08T10:44:21.973Z,6.73
2019-06-08T10:46:52.835Z,6.50
2019-06-08T10:49:23.810Z,8.43
2019-06-08T10:51:54.739Z,9.40
2019-06-08T10:54:27.708Z,12.60
2019-06-08T10:57:00.303Z,10.00
2019-06-08T10:59:30.814Z,9.20
2019-06-08T11:02:05.161Z,7.93
2019-06-08T11:04:34.296Z,9.60
2019-06-08T11:07:12.462Z,11.90
2019-06-08T11:09:37.554Z,7.50
2019-06-08T11:12:15.333Z,9.63
2019-06-08T11:14:42.380Z,7.53
2019-06-08T11:17:13.259Z,8.00
2019-06-08T11:19:44.182Z,9.77
2019-06-08T11:22:15.307Z,8.00
2019-06-08T11:24:48.576Z,7.03
2019-06-08T11:27:19.610Z,6.13
2019-06-08T11:29:50.497Z,8.20
2019-06-08T11:32:21.624Z,7.93
2019-06-08T11:34:52.489Z,7.50
2019-06-08T11:37:23.345Z,8.67
2019-06-08T11:39:54.199Z,15.87
2019-06-08T11:42:28.029Z,9.90
2019-06-08T11:44:58.653Z,5.97
2019-06-08T11:47:31.030Z,6.17
2019-06-08T11:50:02.837Z,6.70
2019-06-08T11:52:34.271Z,8.20
2019-06-08T11:55:05.528Z,8.40
2019-06-08T11:57:40.481Z,7.77
2019-06-08T12:00:23.953Z,8.23
2019-06-08T12:02:45.522Z,5.67
2019-06-08T12:05:18.083Z,6.77
2019-06-08T12:07:48.814Z,6.80
2019-06-08T12:10:19.852Z,5.93
2019-06-08T12:12:50.719Z,6.63
2019-06-08T12:15:21.686Z,7.63
2019-06-08T12:17:52.509Z,8.67
2019-06-08T12:20:24.411Z,9.10
2019-06-08T12:22:55.409Z,5.37
2019-06-08T12:25:26.459Z,6.10
2019-06-08T12:27:58.555Z,5.30
2019-06-08T12:30:29.946Z,9.60
2019-06-08T12:33:00.809Z,5.28
2019-06-08T12:35:31.675Z,8.95
2019-06-08T12:38:02.664Z,6.37
2019-06-08T12:40:33.703Z,5.87
2019-06-08T12:43:04.494Z,9.35
2019-06-08T12:45:37.990Z,7.73
2019-06-08T12:48:13.992Z,8.00
2019-06-08T12:50:41.013Z,8.15
2019-06-08T12:53:15.979Z,5.15
2019-06-08T12:55:44.629Z,5.62
2019-06-08T12:58:17.123Z,5.60
2019-06-08T13:00:48.345Z,4.70
2019-06-08T13:03:19.484Z,8.05
2019-06-08T13:05:50.340Z,5.28
2019-06-08T13:08:21.841Z,5.42
2019-06-08T13:10:53.179Z,6.83
2019-06-08T13:13:24.619Z,5.55
2019-06-08T13:15:57.901Z,4.72
2019-06-08T13:18:27.969Z,5.83
2019-06-08T13:21:03.278Z,4.50
2019-06-08T13:23:31.253Z,6.22
2019-06-08T13:26:02.169Z,9.25
2019-06-08T13:28:33.259Z,7.87
2019-06-08T13:31:04.509Z,25.40
2019-06-08T13:33:35.354Z,13.55
2019-06-08T13:36:06.334Z,5.53
2019-06-08T13:38:38.067Z,4.62
2019-06-08T13:41:08.896Z,4.97
2019-06-08T13:43:40.533Z,5.90
2019-06-08T13:46:11.750Z,6.97
2019-06-08T13:48:42.524Z,5.45
2019-06-08T13:51:13.912Z,3.37
2019-06-08T13:53:47.870Z,4.45
2019-06-08T13:56:20.691Z,5.37
2019-06-08T13:58:50.810Z,4.78
2019-06-08T14:01:21.870Z,5.37
2019-06-08T14:03:53.239Z,6.00
2019-06-08T14:06:24.971Z,6.83
2019-06-08T14:08:57.857Z,6.83
2019-06-08T14:11:28.645Z,7.10
2019-06-08T14:14:01.211Z,9.05
2019-06-08T14:16:31.889Z,3.37
2019-06-08T14:19:02.896Z,6.17
2019-06-08T14:21:38.601Z,4.53
2019-06-08T14:24:07.743Z,4.00
2019-06-08T14:26:38.985Z,6.78
2019-06-08T14:29:11.904Z,6.65
2019-06-08T14:31:43.879Z,6.33
2019-06-08T14:34:18.684Z,7.80
2019-06-08T14:36:49.861Z,7.20
2019-06-08T14:39:21.661Z,4.22
2019-06-08T14:41:53.079Z,4.58
2019-06-08T14:44:24.058Z,5.60
2019-06-08T14:46:55.124Z,4.22
2019-06-08T14:49:30.714Z,6.35
2019-06-08T14:51:58.129Z,3.90
2019-06-08T14:54:33.280Z,4.65
2019-06-08T14:57:01.099Z,3.85
2019-06-08T14:59:31.871Z,4.90
2019-06-08T15:02:02.837Z,5.62
2019-06-08T15:04:36.645Z,5.10
2019-06-08T15:07:09.360Z,6.92
2019-06-08T15:09:38.544Z,4.15
2019-06-08T15:12:09.560Z,5.37
2019-06-08T15:14:40.434Z,4.45
2019-06-08T15:17:11.299Z,4.58
2019-06-08T15:19:42.079Z,5.42
2019-06-08T15:22:13.029Z,5.17
2019-06-08T15:24:43.839Z,4.60
2019-06-08T15:27:14.808Z,6.78
2019-06-08T15:29:47.730Z,7.60
2019-06-08T15:32:18.439Z,4.58
2019-06-08T15:34:50.955Z,6.80
2019-06-08T15:37:21.604Z,3.62
2019-06-08T15:39:52.368Z,3.62
2019-06-08T15:42:24.214Z,4.53
2019-06-08T15:44:57.592Z,14.45
2019-06-08T15:47:28.256Z,4.80
2019-06-08T15:49:59.164Z,3.67
2019-06-08T15:52:32.567Z,4.22
2019-06-08T15:55:02.410Z,4.47
2019-06-08T15:57:37.872Z,6.70
2019-06-08T16:00:09.592Z,5.78
2019-06-08T16:02:38.843Z,4.92
2019-06-08T16:05:10.466Z,3.77
2019-06-08T16:07:41.383Z,7.62
2019-06-08T16:10:12.128Z,6.22
2019-06-08T16:12:42.883Z,4.50
2019-06-08T16:15:13.814Z,4.42
2019-06-08T16:17:44.639Z,6.97
2019-06-08T16:20:15.589Z,4.20
2019-06-08T16:22:46.503Z,6.67
2019-06-08T16:25:17.464Z,5.78
2019-06-08T16:27:49.509Z,5.00
2019-06-08T16:30:20.599Z,6.80
2019-06-08T16:32:51.439Z,5.75
2019-06-08T16:35:22.240Z,4.92
2019-06-08T16:37:53.439Z,6.17
2019-06-08T16:40:24.163Z,4.03
2019-06-08T16:42:54.943Z,5.30
2019-06-08T16:45:26.873Z,5.67
2019-06-08T16:47:57.768Z,3.55
2019-06-08T16:50:28.588Z,3.72
2019-06-08T16:52:59.909Z,3.70
2019-06-08T16:55:31.957Z,7.70
2019-06-08T16:58:03.309Z,4.42
2019-06-08T17:00:38.412Z,4.50
2019-06-08T17:03:06.651Z,4.30
2019-06-08T17:05:38.526Z,4.22
2019-06-08T17:08:09.408Z,5.47
2019-06-08T17:10:41.135Z,5.80
2019-06-08T17:13:12.226Z,2.60
2019-06-08T17:15:43.221Z,4.30
2019-06-08T17:18:13.954Z,3.33
2019-06-08T17:20:44.655Z,5.53
2019-06-08T17:23:15.340Z,3.15
2019-06-08T17:25:46.289Z,3.27
2019-06-08T17:28:17.349Z,3.15
2019-06-08T17:30:48.239Z,4.30
2019-06-08T17:33:19.341Z,4.67
2019-06-08T17:35:50.319Z,2.65
2019-06-08T17:38:21.024Z,4.75
2019-06-08T17:40:51.896Z,5.25
2019-06-08T17:43:22.761Z,3.40
2019-06-08T17:45:53.469Z,3.58
2019-06-08T17:48:24.326Z,5.60
2019-06-08T17:50:55.252Z,4.22
2019-06-08T17:53:26.064Z,5.40
2019-06-08T17:55:56.864Z,2.85
2019-06-08T17:58:27.714Z,5.95
2019-06-08T18:00:58.749Z,5.50
2019-06-08T18:03:29.599Z,4.33
2019-06-08T18:06:00.484Z,2.85
2019-06-08T18:08:31.385Z,3.30
2019-06-08T18:11:02.205Z,2.98
2019-06-08T18:13:33.974Z,2.42
2019-06-08T18:16:04.779Z,1.95
2019-06-08T18:18:39.192Z,4.75
2019-06-08T18:21:09.569Z,5.72
2019-06-08T18:23:41.848Z,5.37
2019-06-08T18:26:12.909Z,5.72
2019-06-08T18:28:45.222Z,5.72
2019-06-08T18:31:18.111Z,4.15
2019-06-08T18:33:50.371Z,5.00
2019-06-08T18:36:21.469Z,3.20
2019-06-08T18:38:52.463Z,5.85
2019-06-08T18:41:23.280Z,4.28
2019-06-08T18:43:54.189Z,5.87
2019-06-08T18:46:27.213Z,4.40
2019-06-08T18:48:58.294Z,3.08
2019-06-08T18:51:29.363Z,3.77
2019-06-08T18:54:11.364Z,5.05
2019-06-08T18:56:33.014Z,2.62
2019-06-08T18:59:04.284Z,4.90
2019-06-08T19:01:37.889Z,4.20
2019-06-08T19:04:08.049Z,4.20
2019-06-08T19:06:41.212Z,5.07
2019-06-08T19:09:13.326Z,5.37
2019-06-08T19:11:48.412Z,5.00
2019-06-08T19:14:20.848Z,3.40
2019-06-08T19:16:54.779Z,2.53
2019-06-08T19:19:24.594Z,2.73
2019-06-08T19:21:57.870Z,4.97
2019-06-08T19:24:28.439Z,4.27
2019-06-08T19:26:59.951Z,3.03
2019-06-08T19:29:31.379Z,4.30
2019-06-08T19:32:02.419Z,6.40
2019-06-08T19:34:33.642Z,3.13
2019-06-08T19:37:04.794Z,3.83
2019-06-08T19:39:36.248Z,5.73
2019-06-08T19:42:08.084Z,6.23
2019-06-08T19:44:46.653Z,9.33
2019-06-08T19:47:11.799Z,4.43
2019-06-08T19:49:42.893Z,4.57
2019-06-08T19:52:14.123Z,4.33
2019-06-08T19:54:47.141Z,3.87
2019-06-08T19:57:17.670Z,4.97
2019-06-08T19:59:49.635Z,5.10
2019-06-08T20:02:20.782Z,5.87
2019-06-08T20:04:53.289Z,6.90
2019-06-08T20:07:24.709Z,4.87
2019-06-08T20:09:57.101Z,7.80
2019-06-08T20:12:28.794Z,6.53
2019-06-08T20:15:01.490Z,4.17
2019-06-08T20:17:32.529Z,6.63
2019-06-08T20:20:03.295Z,7.67
2019-06-08T20:22:37.312Z,6.53
2019-06-08T20:25:10.435Z,4.70
2019-06-08T20:27:41.045Z,6.60
2019-06-08T20:30:12.461Z,4.10
2019-06-08T20:32:44.447Z,4.07
2019-06-08T20:35:17.435Z,4.53
2019-06-08T20:37:48.169Z,9.83
2019-06-08T20:40:18.998Z,5.10
2019-06-08T20:42:53.274Z,3.77
2019-06-08T20:45:22.494Z,5.17
2019-06-08T20:47:53.911Z,9.73
2019-06-08T20:50:27.020Z,4.30
2019-06-08T20:52:57.797Z,7.13
2019-06-08T20:55:28.754Z,7.50
2019-06-08T20:57:59.494Z,4.57
2019-06-08T21:00:30.424Z,6.63
2019-06-08T21:03:03.002Z,4.63
2019-06-08T21:05:33.554Z,8.00
2019-06-08T21:08:08.124Z,7.60
2019-06-08T21:10:37.950Z,10.53
2019-06-08T21:13:09.199Z,7.03
2019-06-08T21:15:40.102Z,8.43
2019-06-08T21:18:10.949Z,6.97
2019-06-08T21:20:42.018Z,7.43
2019-06-08T21:23:12.909Z,7.10
2019-06-08T21:25:43.669Z,7.13
2019-06-08T21:28:17.055Z,7.23
2019-06-08T21:30:51.449Z,7.23
2019-06-08T21:33:19.639Z,8.57
2019-06-08T21:35:52.515Z,6.93
2019-06-08T21:38:24.251Z,4.53
2019-06-08T21:41:00.268Z,4.97
2019-06-08T21:43:28.162Z,3.50
2019-06-08T21:46:00.908Z,4.63
2019-06-08T21:48:31.383Z,6.37
2019-06-08T21:51:02.144Z,5.87
2019-06-08T21:53:32.854Z,5.90
2019-06-08T21:56:03.689Z,4.60
2019-06-08T21:58:34.599Z,6.53
2019-06-08T22:01:07.348Z,6.13
2019-06-08T22:03:38.207Z,6.40
2019-06-08T22:06:09.223Z,6.50
2019-06-08T22:08:40.140Z,4.90
2019-06-08T22:11:11.269Z,6.57
2019-06-08T22:13:42.085Z,6.50
2019-06-08T22:16:12.973Z,5.07
2019-06-08T22:18:43.864Z,6.37
2019-06-08T22:21:18.055Z,6.57
2019-06-08T22:23:48.003Z,5.10
2019-06-08T22:26:18.788Z,4.67
2019-06-08T22:28:49.654Z,6.97
2019-06-08T22:31:23.155Z,5.10
2019-06-08T22:33:54.239Z,5.37
2019-06-08T22:36:27.469Z,7.80
2019-06-08T22:39:00.606Z,4.67
2019-06-08T22:41:30.638Z,9.93
2019-06-08T22:44:01.498Z,6.63
2019-06-08T22:46:32.348Z,8.80
2019-06-08T22:49:04.025Z,10.67
2019-06-08T22:51:34.883Z,5.27
2019-06-08T22:54:07.827Z,3.97
2019-06-08T22:56:38.146Z,10.77
2019-06-08T22:59:09.230Z,4.60
2019-06-08T23:01:40.151Z,5.57
2019-06-08T23:04:11.410Z,5.57
2019-06-08T23:06:42.448Z,7.43
2019-06-08T23:09:13.468Z,6.93
2019-06-08T23:11:44.373Z,5.67
2019-06-08T23:14:15.172Z,6.70
2019-06-08T23:16:47.204Z,5.83
2019-06-08T23:19:18.464Z,4.63
2019-06-08T23:21:49.229Z,5.20
2019-06-08T23:24:19.913Z,5.43
2019-06-08T23:26:50.744Z,9.27
2019-06-08T23:29:21.733Z,6.77
2019-06-08T23:31:52.714Z,4.67
2019-06-08T23:34:24.080Z,5.10
2019-06-08T23:36:59.127Z,5.40
2019-06-08T23:39:28.459Z,4.70
2019-06-08T23:41:59.644Z,4.93
2019-06-08T23:44:30.528Z,3.87
2019-06-08T23:47:02.768Z,4.83
2019-06-08T23:49:34.119Z,3.97
2019-06-08T23:52:06.315Z,4.70
2019-06-08T23:54:37.431Z,4.27
2019-06-08T23:57:10.063Z,4.20
2019-06-08T23:59:40.809Z,3.97
